createdAt,value
2017-06-10T00:01:55.337Z,94.70
2017-06-10T00:04:22.861Z,94.60
2017-06-10T00:06:50.371Z,95.00
2017-06-10T00:09:17.907Z,94.30
2017-06-10T00:11:45.866Z,94.40
2017-06-10T00:14:13.521Z,94.40
2017-06-10T00:16:42.229Z,94.40
2017-06-10T00:19:09.768Z,94.10
2017-06-10T00:21:37.368Z,94.20
2017-06-10T00:24:04.955Z,94.20
2017-06-10T00:26:33.503Z,93.90
2017-06-10T00:29:01.017Z,94.00
2017-06-10T00:31:28.743Z,94.20
2017-06-10T00:33:56.330Z,94.30
2017-06-10T00:36:24.852Z,94.50
2017-06-10T00:38:52.387Z,94.40
2017-06-10T00:41:19.895Z,94.50
2017-06-10T00:43:47.429Z,94.40
2017-06-10T00:46:14.935Z,94.50
2017-06-10T00:48:42.470Z,94.60
2017-06-10T00:51:09.982Z,94.70
2017-06-10T00:53:37.518Z,94.90
2017-06-10T00:56:05.039Z,93.80
2017-06-10T00:58:32.557Z,94.80
2017-06-10T01:01:00.100Z,94.90
2017-06-10T01:03:28.379Z,94.50
2017-06-10T01:05:56.693Z,94.60
2017-06-10T01:08:24.203Z,94.60
2017-06-10T01:10:51.735Z,94.80
2017-06-10T01:13:19.243Z,94.60
2017-06-10T01:15:47.551Z,94.70
2017-06-10T01:18:15.055Z,94.70
2017-06-10T01:20:42.590Z,94.90
2017-06-10T01:23:10.106Z,95.00
2017-06-10T01:25:37.662Z,94.90
2017-06-10T01:28:05.175Z,95.00
2017-06-10T01:30:32.681Z,94.90
2017-06-10T01:33:00.482Z,95.20
2017-06-10T01:35:28.245Z,94.90
2017-06-10T01:37:56.004Z,95.20
2017-06-10T01:40:23.523Z,95.00
2017-06-10T01:42:51.811Z,95.20
2017-06-10T01:45:19.619Z,95.20
2017-06-10T01:47:47.115Z,95.20
2017-06-10T01:50:15.431Z,95.30
2017-06-10T01:52:45.022Z,95.40
2017-06-10T01:55:12.560Z,95.30
2017-06-10T01:57:40.832Z,95.60
2017-06-10T02:00:08.395Z,95.60
2017-06-10T02:02:35.895Z,95.60
2017-06-10T02:05:03.407Z,95.50
2017-06-10T02:07:30.945Z,95.40
2017-06-10T02:09:58.459Z,95.60
2017-06-10T02:12:25.963Z,95.50
2017-06-10T02:14:53.510Z,95.40
2017-06-10T02:17:21.011Z,95.30
2017-06-10T02:19:49.319Z,95.30
2017-06-10T02:22:16.832Z,95.00
2017-06-10T02:24:44.374Z,94.70
2017-06-10T02:27:11.885Z,95.00
2017-06-10T02:29:39.403Z,94.50
2017-06-10T02:32:06.934Z,94.80
2017-06-10T02:34:34.443Z,94.70
2017-06-10T02:37:02.978Z,95.20
2017-06-10T02:39:30.482Z,95.00
2017-06-10T02:41:58.993Z,94.70
2017-06-10T02:44:26.504Z,95.00
2017-06-10T02:46:54.045Z,95.10
2017-06-10T02:49:21.584Z,94.80
2017-06-10T02:51:49.090Z,95.00
2017-06-10T02:54:16.630Z,95.30
2017-06-10T02:56:44.138Z,94.80
2017-06-10T02:59:11.943Z,94.40
2017-06-10T03:01:40.450Z,94.70
2017-06-10T03:04:07.963Z,95.00
2017-06-10T03:06:35.494Z,95.10
2017-06-10T03:09:03.776Z,95.00
2017-06-10T03:11:32.119Z,95.20
2017-06-10T03:13:59.614Z,95.20
2017-06-10T03:16:27.893Z,95.80
2017-06-10T03:18:56.074Z,95.80
2017-06-10T03:21:23.602Z,96.00
2017-06-10T03:23:51.131Z,95.60
2017-06-10T03:26:18.690Z,95.00
2017-06-10T03:28:46.196Z,95.40
2017-06-10T03:31:14.467Z,95.50
2017-06-10T03:33:42.785Z,95.20
2017-06-10T03:36:10.293Z,95.20
2017-06-10T03:38:38.060Z,95.50
2017-06-10T03:41:06.346Z,95.50
2017-06-10T03:43:34.986Z,95.20
2017-06-10T03:46:02.507Z,95.20
2017-06-10T03:48:30.010Z,95.20
2017-06-10T03:50:57.553Z,95.40
2017-06-10T03:53:25.060Z,95.40
2017-06-10T03:55:52.570Z,94.90
2017-06-10T03:58:20.318Z,95.10
2017-06-10T04:00:47.872Z,94.80
2017-06-10T04:03:15.774Z,95.00
2017-06-10T04:05:43.323Z,95.10
2017-06-10T04:08:10.827Z,94.80
2017-06-10T04:10:38.388Z,94.70
2017-06-10T04:13:05.892Z,94.80
2017-06-10T04:15:33.393Z,94.50
2017-06-10T04:18:00.955Z,93.90
2017-06-10T04:20:28.458Z,94.30
2017-06-10T04:22:55.973Z,94.40
2017-06-10T04:25:23.515Z,94.10
2017-06-10T04:27:51.024Z,94.00
2017-06-10T04:30:19.331Z,93.90
2017-06-10T04:32:46.838Z,93.80
2017-06-10T04:35:14.382Z,93.60
2017-06-10T04:37:42.681Z,93.30
2017-06-10T04:40:10.968Z,93.00
2017-06-10T04:42:38.516Z,92.90
2017-06-10T04:45:06.791Z,93.30
2017-06-10T04:47:34.348Z,93.20
2017-06-10T04:50:01.851Z,92.80
2017-06-10T04:52:29.635Z,91.80
2017-06-10T04:54:57.165Z,91.90
2017-06-10T04:57:24.961Z,92.10
2017-06-10T04:59:52.530Z,91.70
2017-06-10T05:02:20.030Z,91.30
2017-06-10T05:04:48.300Z,90.90
2017-06-10T05:07:16.607Z,91.00
2017-06-10T05:09:44.128Z,91.00
2017-06-10T05:12:11.958Z,90.60
2017-06-10T05:14:39.490Z,91.00
2017-06-10T05:17:07.037Z,90.20
2017-06-10T05:19:34.539Z,90.00
2017-06-10T05:22:02.091Z,90.00
2017-06-10T05:24:29.864Z,90.30
2017-06-10T05:26:57.370Z,88.90
2017-06-10T05:29:25.685Z,89.10
2017-06-10T05:31:53.206Z,89.00
2017-06-10T05:34:21.473Z,89.00
2017-06-10T05:36:49.006Z,89.00
2017-06-10T05:39:16.551Z,89.40
2017-06-10T05:41:44.061Z,87.30
2017-06-10T05:44:11.596Z,86.00
2017-06-10T05:46:39.126Z,85.00
2017-06-10T05:49:06.642Z,86.50
2017-06-10T05:51:34.194Z,85.60
2017-06-10T05:54:02.835Z,86.20
2017-06-10T05:56:30.373Z,86.20
2017-06-10T05:58:57.943Z,83.80
2017-06-10T06:01:25.474Z,85.40
2017-06-10T06:03:53.028Z,84.00
2017-06-10T06:06:20.558Z,82.90
2017-06-10T06:08:48.295Z,83.20
2017-06-10T06:11:15.838Z,82.00
2017-06-10T06:13:43.337Z,80.90
2017-06-10T06:16:10.852Z,79.10
2017-06-10T06:18:38.403Z,80.50
2017-06-10T06:21:05.925Z,81.00
2017-06-10T06:23:33.430Z,81.00
2017-06-10T06:26:00.962Z,81.70
2017-06-10T06:28:29.260Z,82.00
2017-06-10T06:30:56.755Z,81.90
2017-06-10T06:33:24.272Z,81.20
2017-06-10T06:35:51.813Z,82.20
2017-06-10T06:38:19.717Z,80.60
2017-06-10T06:40:47.578Z,80.70
2017-06-10T06:43:15.149Z,80.40
2017-06-10T06:45:44.144Z,79.30
2017-06-10T06:48:12.811Z,78.70
2017-06-10T06:50:40.369Z,77.90
2017-06-10T06:53:07.883Z,78.50
2017-06-10T06:55:35.389Z,79.10
2017-06-10T06:58:02.939Z,76.10
2017-06-10T07:00:30.451Z,74.30
2017-06-10T07:02:58.044Z,76.10
2017-06-10T07:05:26.354Z,74.10
2017-06-10T07:07:54.087Z,74.10
2017-06-10T07:10:21.626Z,74.70
2017-06-10T07:12:49.145Z,73.80
2017-06-10T07:15:16.705Z,74.30
2017-06-10T07:17:44.216Z,72.90
2017-06-10T07:20:11.724Z,74.50
2017-06-10T07:22:39.505Z,74.40
2017-06-10T07:25:07.011Z,74.30
2017-06-10T07:27:34.567Z,73.60
2017-06-10T07:30:02.082Z,73.90
2017-06-10T07:32:29.590Z,73.70
2017-06-10T07:34:57.406Z,72.80
2017-06-10T07:37:24.979Z,73.50
2017-06-10T07:39:52.508Z,73.70
2017-06-10T07:42:20.059Z,73.40
2017-06-10T07:44:47.712Z,70.90
2017-06-10T07:47:15.242Z,72.60
2017-06-10T07:49:43.067Z,70.50
2017-06-10T07:52:10.570Z,71.80
2017-06-10T07:54:38.088Z,70.70
2017-06-10T07:57:05.641Z,70.60
2017-06-10T07:59:33.212Z,72.80
2017-06-10T08:02:00.796Z,69.30
2017-06-10T08:04:28.316Z,70.20
2017-06-10T08:06:57.686Z,68.80
2017-06-10T08:09:25.347Z,68.80
2017-06-10T08:11:54.233Z,67.20
2017-06-10T08:14:26.608Z,68.70
2017-06-10T08:19:42.108Z,66.80
2017-06-10T08:22:11.578Z,66.40
2017-06-10T08:24:43.393Z,66.20
2017-06-10T08:27:12.668Z,65.10
2017-06-10T08:29:42.618Z,66.00
2017-06-10T08:32:11.669Z,66.60
2017-06-10T08:34:40.636Z,66.60
2017-06-10T08:37:09.712Z,66.30
2017-06-10T08:39:38.086Z,65.50
2017-06-10T08:42:06.853Z,66.00
2017-06-10T08:44:35.591Z,65.60
2017-06-10T08:47:04.255Z,65.50
2017-06-10T08:49:33.024Z,63.90
2017-06-10T08:52:02.429Z,63.10
2017-06-10T08:54:30.975Z,61.70
2017-06-10T08:56:58.566Z,61.60
2017-06-10T08:59:26.113Z,62.60
2017-06-10T09:01:53.660Z,60.70
2017-06-10T09:04:21.974Z,61.20
2017-06-10T09:06:49.542Z,61.20
2017-06-10T09:09:17.211Z,61.40
2017-06-10T09:11:44.715Z,63.50
2017-06-10T09:14:13.060Z,57.90
2017-06-10T09:16:40.612Z,57.90
2017-06-10T09:19:08.146Z,58.40
2017-06-10T09:21:35.658Z,61.50
2017-06-10T09:24:03.211Z,58.80
2017-06-10T09:26:30.720Z,60.00
2017-06-10T09:28:58.235Z,60.70
2017-06-10T09:31:26.097Z,61.80
2017-06-10T09:33:53.916Z,60.80
2017-06-10T09:36:21.506Z,59.90
2017-06-10T09:38:49.341Z,59.80
2017-06-10T09:41:17.154Z,61.50
2017-06-10T09:43:45.060Z,59.10
2017-06-10T09:46:12.595Z,59.20
2017-06-10T09:48:40.456Z,58.90
2017-06-10T09:51:08.640Z,59.50
2017-06-10T09:53:36.228Z,59.50
2017-06-10T09:56:03.760Z,60.10
2017-06-10T09:58:31.550Z,59.10
2017-06-10T10:01:00.708Z,58.60
2017-06-10T10:03:28.271Z,57.20
2017-06-10T10:05:56.024Z,56.80
2017-06-10T10:08:23.664Z,57.90
2017-06-10T10:10:51.390Z,58.30
2017-06-10T10:13:18.934Z,58.20
2017-06-10T10:15:47.214Z,55.60
2017-06-10T10:18:15.504Z,55.50
2017-06-10T10:20:43.808Z,54.90
2017-06-10T10:23:11.378Z,54.90
2017-06-10T10:25:38.929Z,56.00
2017-06-10T10:28:06.508Z,56.80
2017-06-10T10:30:34.015Z,57.40
2017-06-10T10:33:01.567Z,57.40
2017-06-10T10:35:29.401Z,55.20
2017-06-10T10:37:56.914Z,54.40
2017-06-10T10:40:24.436Z,53.40
2017-06-10T10:42:51.994Z,54.10
2017-06-10T10:45:19.520Z,55.00
2017-06-10T10:47:47.389Z,54.20
2017-06-10T10:50:14.966Z,52.60
2017-06-10T10:52:42.479Z,53.60
2017-06-10T10:55:10.036Z,54.60
2017-06-10T10:57:38.332Z,50.50
2017-06-10T11:00:05.931Z,50.50
2017-06-10T11:02:33.443Z,52.70
2017-06-10T11:05:04.960Z,52.50
2017-06-10T11:07:33.402Z,50.10
2017-06-10T11:10:00.951Z,52.90
2017-06-10T11:12:28.509Z,51.50
2017-06-10T11:14:56.013Z,51.20
2017-06-10T11:17:23.603Z,51.80
2017-06-10T11:19:51.898Z,52.50
2017-06-10T11:22:19.632Z,52.50
2017-06-10T11:24:47.184Z,52.00
2017-06-10T11:27:14.726Z,52.00
2017-06-10T11:29:42.288Z,52.80
2017-06-10T11:32:09.808Z,51.90
2017-06-10T11:34:37.324Z,50.00
2017-06-10T11:37:04.940Z,51.40
2017-06-10T11:39:32.504Z,51.90
2017-06-10T11:42:00.031Z,52.30
2017-06-10T11:44:27.564Z,52.10
2017-06-10T11:46:55.391Z,53.40
2017-06-10T11:49:22.889Z,52.50
2017-06-10T11:51:50.731Z,53.50
2017-06-10T11:54:18.287Z,51.90
2017-06-10T11:56:45.817Z,51.70
2017-06-10T11:59:13.334Z,52.80
2017-06-10T12:01:41.116Z,52.20
2017-06-10T12:04:08.641Z,52.30
2017-06-10T12:06:36.495Z,51.10
2017-06-10T12:09:04.004Z,51.60
2017-06-10T12:11:32.315Z,52.60
2017-06-10T12:13:59.978Z,52.50
2017-06-10T12:16:27.687Z,51.90
2017-06-10T12:18:56.136Z,50.20
2017-06-10T12:21:23.662Z,51.50
2017-06-10T12:23:51.242Z,51.40
2017-06-10T12:26:18.836Z,50.80
2017-06-10T12:28:46.340Z,51.30
2017-06-10T12:31:13.889Z,50.60
2017-06-10T12:33:42.180Z,50.70
2017-06-10T12:36:10.579Z,50.60
2017-06-10T12:38:38.100Z,49.10
2017-06-10T12:41:06.414Z,50.60
2017-06-10T12:43:33.923Z,50.60
2017-06-10T12:46:01.495Z,49.30
2017-06-10T12:48:29.776Z,48.80
2017-06-10T12:50:57.352Z,48.20
2017-06-10T12:53:24.934Z,50.80
2017-06-10T12:55:52.482Z,50.20
2017-06-10T12:58:19.992Z,49.70
2017-06-10T13:00:47.494Z,49.00
2017-06-10T13:03:15.038Z,49.00
2017-06-10T13:05:43.320Z,47.80
2017-06-10T13:08:10.827Z,47.70
2017-06-10T13:10:39.443Z,48.40
2017-06-10T13:13:06.951Z,47.60
2017-06-10T13:15:34.480Z,48.40
2017-06-10T13:18:02.036Z,49.80
2017-06-10T13:20:29.543Z,49.40
2017-06-10T13:22:57.104Z,50.60
2017-06-10T13:25:25.438Z,50.90
2017-06-10T13:27:53.276Z,49.60
2017-06-10T13:30:23.130Z,50.30
2017-06-10T13:32:52.603Z,49.70
2017-06-10T13:35:22.077Z,48.90
2017-06-10T13:37:49.644Z,49.50
2017-06-10T13:40:17.199Z,48.80
2017-06-10T13:42:46.579Z,51.50
2017-06-10T13:45:16.164Z,48.80
2017-06-10T13:47:43.729Z,48.40
2017-06-10T13:50:11.253Z,48.70
2017-06-10T13:52:38.817Z,48.90
2017-06-10T13:55:07.221Z,47.30
2017-06-10T13:57:34.719Z,47.20
2017-06-10T14:00:02.257Z,44.40
2017-06-10T14:02:29.833Z,42.90
2017-06-10T14:04:57.407Z,43.70
2017-06-10T14:07:24.944Z,46.40
2017-06-10T14:09:52.823Z,45.90
2017-06-10T14:12:20.491Z,46.80
2017-06-10T14:14:48.350Z,45.90
2017-06-10T14:17:15.883Z,46.40
2017-06-10T14:19:44.300Z,47.10
2017-06-10T14:22:11.919Z,46.50
2017-06-10T14:24:39.421Z,44.70
2017-06-10T14:27:06.974Z,43.30
2017-06-10T14:29:34.492Z,42.50
2017-06-10T14:32:02.083Z,41.00
2017-06-10T14:34:31.952Z,40.90
2017-06-10T14:37:03.815Z,40.40
2017-06-10T14:39:32.099Z,42.00
2017-06-10T14:41:59.761Z,41.90
2017-06-10T14:44:27.294Z,44.30
2017-06-10T14:46:54.811Z,41.80
2017-06-10T14:49:23.157Z,42.60
2017-06-10T14:51:51.782Z,41.70
2017-06-10T14:54:19.309Z,41.90
2017-06-10T14:56:53.184Z,43.10
2017-06-10T14:59:20.911Z,45.60
2017-06-10T15:01:49.315Z,44.90
2017-06-10T15:04:18.306Z,45.80
2017-06-10T15:06:50.246Z,45.40
2017-06-10T15:09:18.664Z,44.80
2017-06-10T15:11:48.025Z,43.80
2017-06-10T15:14:17.017Z,42.80
2017-06-10T15:16:44.516Z,40.90
2017-06-10T15:19:12.099Z,42.30
2017-06-10T15:21:40.553Z,39.90
2017-06-10T15:24:08.064Z,39.90
2017-06-10T15:26:35.900Z,39.30
2017-06-10T15:29:04.375Z,38.30
2017-06-10T15:31:33.723Z,41.00
2017-06-10T15:34:01.356Z,40.30
2017-06-10T15:36:30.573Z,39.60
2017-06-10T15:38:58.139Z,39.60
2017-06-10T15:41:25.655Z,38.20
2017-06-10T15:43:55.252Z,36.50
2017-06-10T15:46:24.828Z,37.60
2017-06-10T15:48:53.262Z,37.50
2017-06-10T15:51:20.787Z,35.80
2017-06-10T15:53:48.427Z,36.50
2017-06-10T15:56:17.531Z,33.50
2017-06-10T15:58:45.980Z,33.40
2017-06-10T16:01:13.500Z,33.80
2017-06-10T16:03:41.058Z,36.70
2017-06-10T16:06:08.578Z,36.60
2017-06-10T16:08:36.123Z,33.90
2017-06-10T16:11:03.929Z,35.00
2017-06-10T16:13:31.476Z,35.00
2017-06-10T16:15:59.239Z,36.70
2017-06-10T16:18:27.043Z,37.10
2017-06-10T16:20:55.332Z,35.90
2017-06-10T16:23:22.910Z,35.80
2017-06-10T16:25:50.434Z,37.00
2017-06-10T16:28:17.986Z,36.70
2017-06-10T16:30:45.499Z,36.60
2017-06-10T16:33:14.129Z,37.50
2017-06-10T16:35:41.667Z,38.60
2017-06-10T16:38:09.175Z,38.90
2017-06-10T16:40:37.809Z,40.30
2017-06-10T16:43:05.339Z,40.20
2017-06-10T16:45:32.870Z,40.20
2017-06-10T16:48:01.193Z,42.30
2017-06-10T16:50:28.966Z,42.30
2017-06-10T16:52:56.469Z,43.40
2017-06-10T16:55:25.007Z,43.10
2017-06-10T16:57:52.506Z,43.10
2017-06-10T17:00:20.059Z,41.40
2017-06-10T17:02:48.391Z,42.90
2017-06-10T17:05:15.957Z,42.60
2017-06-10T17:07:43.502Z,42.90
2017-06-10T17:10:11.015Z,43.30
2017-06-10T17:12:38.523Z,43.80
2017-06-10T17:15:06.079Z,43.20
2017-06-10T17:17:33.596Z,44.00
2017-06-10T17:20:01.094Z,43.60
2017-06-10T17:22:28.643Z,43.80
2017-06-10T17:24:56.178Z,44.20
2017-06-10T17:27:24.455Z,44.70
2017-06-10T17:29:52.008Z,44.60
2017-06-10T17:32:19.541Z,44.90
2017-06-10T17:34:47.061Z,45.20
2017-06-10T17:37:14.859Z,45.40
2017-06-10T17:39:42.406Z,45.50
2017-06-10T17:42:09.966Z,45.40
2017-06-10T17:44:37.471Z,45.50
2017-06-10T17:47:05.684Z,46.20
2017-06-10T17:49:34.028Z,46.20
2017-06-10T17:52:01.853Z,46.90
2017-06-10T17:54:31.988Z,46.50
2017-06-10T17:57:01.323Z,46.80
2017-06-10T17:59:28.840Z,46.80
2017-06-10T18:01:56.353Z,47.10
2017-06-10T18:04:23.889Z,47.20
2017-06-10T18:06:51.425Z,46.80
2017-06-10T18:09:18.973Z,47.10
2017-06-10T18:11:46.479Z,47.80
2017-06-10T18:14:14.081Z,48.30
2017-06-10T18:16:41.639Z,47.80
2017-06-10T18:19:09.375Z,47.50
2017-06-10T18:21:36.967Z,47.90
2017-06-10T18:24:04.474Z,48.10
2017-06-10T18:26:31.988Z,48.00
2017-06-10T18:28:59.541Z,48.10
2017-06-10T18:31:27.055Z,48.00
2017-06-10T18:33:54.585Z,48.90
2017-06-10T18:36:22.115Z,49.00
2017-06-10T18:38:49.668Z,49.30
2017-06-10T18:41:17.185Z,49.50
2017-06-10T18:43:44.820Z,49.80
2017-06-10T18:46:12.322Z,50.40
2017-06-10T18:48:41.602Z,50.40
2017-06-10T18:51:18.937Z,50.40
2017-06-10T18:53:47.760Z,50.80
2017-06-10T18:56:15.310Z,50.90
2017-06-10T18:58:42.875Z,50.20
2017-06-10T19:01:12.660Z,50.40
2017-06-10T19:03:41.004Z,51.00
2017-06-10T19:06:09.643Z,50.40
2017-06-10T19:08:37.275Z,50.30
2017-06-10T19:11:05.326Z,50.60
2017-06-10T19:13:32.958Z,50.60
2017-06-10T19:16:00.507Z,51.50
2017-06-10T19:18:28.051Z,51.10
2017-06-10T19:20:55.556Z,51.30
2017-06-10T19:23:23.111Z,50.90
2017-06-10T19:25:50.618Z,50.80
2017-06-10T19:28:18.137Z,50.90
2017-06-10T19:30:45.683Z,51.20
2017-06-10T19:33:13.267Z,51.00
2017-06-10T19:35:40.813Z,51.70
2017-06-10T19:38:08.321Z,50.90
2017-06-10T19:40:36.101Z,51.20
2017-06-10T19:43:03.604Z,51.20
2017-06-10T19:45:31.144Z,51.60
2017-06-10T19:47:58.993Z,51.30
2017-06-10T19:50:26.539Z,51.20
2017-06-10T19:52:54.046Z,51.50
2017-06-10T19:55:21.567Z,52.40
2017-06-10T19:57:49.102Z,52.40
2017-06-10T20:00:16.614Z,52.90
2017-06-10T20:02:44.149Z,53.20
2017-06-10T20:05:11.671Z,53.80
2017-06-10T20:07:39.245Z,54.20
2017-06-10T20:10:07.026Z,54.90
2017-06-10T20:12:34.569Z,55.40
2017-06-10T20:15:02.128Z,55.60
2017-06-10T20:17:29.684Z,55.90
2017-06-10T20:19:57.204Z,55.80
2017-06-10T20:22:25.536Z,56.40
2017-06-10T20:24:53.039Z,56.30
2017-06-10T20:27:20.651Z,55.80
2017-06-10T20:29:48.193Z,56.20
2017-06-10T20:32:15.707Z,55.80
2017-06-10T20:34:43.249Z,54.60
2017-06-10T20:37:10.762Z,55.50
2017-06-10T20:39:38.337Z,56.00
2017-06-10T20:42:05.851Z,56.30
2017-06-10T20:44:33.350Z,56.00
2017-06-10T20:47:00.889Z,57.00
2017-06-10T20:49:28.700Z,57.20
2017-06-10T20:51:56.245Z,57.30
2017-06-10T20:54:23.805Z,57.40
2017-06-10T20:56:51.361Z,56.70
2017-06-10T20:59:18.867Z,58.10
2017-06-10T21:01:46.427Z,56.80
2017-06-10T21:04:13.989Z,56.90
2017-06-10T21:06:42.323Z,59.10
2017-06-10T21:09:09.878Z,59.00
2017-06-10T21:11:37.408Z,58.50
2017-06-10T21:14:05.007Z,59.70
2017-06-10T21:16:32.522Z,59.80
2017-06-10T21:19:00.790Z,60.80
2017-06-10T21:21:28.340Z,60.80
2017-06-10T21:23:56.775Z,59.50
2017-06-10T21:26:24.336Z,60.90
2017-06-10T21:28:51.863Z,61.20
2017-06-10T21:31:20.156Z,61.80
2017-06-10T21:33:47.720Z,61.70
2017-06-10T21:36:15.517Z,62.10
2017-06-10T21:38:43.040Z,62.00
2017-06-10T21:41:10.606Z,62.70
2017-06-10T21:43:38.126Z,62.10
2017-06-10T21:46:05.686Z,63.20
2017-06-10T21:48:33.788Z,63.70
2017-06-10T21:51:01.347Z,63.10
2017-06-10T21:53:29.123Z,64.20
2017-06-10T21:55:56.634Z,64.40
2017-06-10T21:58:24.184Z,64.40
2017-06-10T22:00:51.758Z,63.40
2017-06-10T22:03:19.275Z,62.20
2017-06-10T22:05:46.823Z,62.40
2017-06-10T22:08:14.366Z,62.60
2017-06-10T22:10:41.892Z,62.50
2017-06-10T22:13:09.451Z,65.10
2017-06-10T22:15:36.967Z,63.70
2017-06-10T22:18:04.470Z,64.10
2017-06-10T22:20:32.028Z,65.10
2017-06-10T22:22:59.546Z,65.90
2017-06-10T22:25:27.098Z,66.70
2017-06-10T22:27:54.644Z,67.00
2017-06-10T22:30:22.166Z,67.20
2017-06-10T22:32:49.729Z,67.30
2017-06-10T22:35:17.243Z,68.10
2017-06-10T22:37:44.758Z,68.00
2017-06-10T22:40:12.318Z,68.20
2017-06-10T22:42:39.840Z,66.50
2017-06-10T22:45:07.376Z,67.70
2017-06-10T22:47:34.883Z,68.40
2017-06-10T22:50:02.675Z,62.90
2017-06-10T22:52:30.187Z,65.40
2017-06-10T22:54:57.712Z,64.40
2017-06-10T22:57:25.271Z,66.60
2017-06-10T22:59:52.794Z,65.50
2017-06-10T23:02:20.359Z,67.90
2017-06-10T23:04:47.879Z,69.30
2017-06-10T23:07:15.386Z,68.80
2017-06-10T23:09:42.978Z,68.80
2017-06-10T23:12:10.499Z,67.60
2017-06-10T23:14:38.318Z,69.60
2017-06-10T23:17:05.863Z,70.20
2017-06-10T23:19:33.386Z,69.00
2017-06-10T23:22:00.896Z,69.30
2017-06-10T23:24:28.757Z,70.40
2017-06-10T23:26:56.327Z,70.10
2017-06-10T23:29:23.838Z,71.00
2017-06-10T23:31:51.367Z,71.60
2017-06-10T23:34:18.928Z,72.50
2017-06-10T23:36:46.440Z,72.90
2017-06-10T23:39:13.991Z,73.60
2017-06-10T23:41:41.538Z,74.40
2017-06-10T23:44:09.065Z,73.50
2017-06-10T23:46:36.607Z,73.30
2017-06-10T23:49:04.129Z,73.70
2017-06-10T23:51:31.712Z,74.00
2017-06-10T23:53:59.218Z,71.30
2017-06-10T23:56:26.721Z,72.60
2017-06-10T23:58:54.253Z,73.20
